sensor_id;sensor_type;location;lat;lon;timestamp;P1;durP1;ratioP1;P2;durP2;ratioP2
48205;SDS011;33995;48.202;16.260;2022-07-17T00:01:14;3.57;;;2.50;;
48205;SDS011;33995;48.202;16.260;2022-07-17T00:03:55;2.83;;;2.30;;
48205;SDS011;33995;48.202;16.260;2022-07-17T00:06:35;3.50;;;2.50;;
48205;SDS011;33995;48.202;16.260;2022-07-17T00:09:07;3.07;;;2.53;;
48205;SDS011;33995;48.202;16.260;2022-07-17T00:11:37;3.60;;;2.63;;
48205;SDS011;33995;48.202;16.260;2022-07-17T00:14:09;3.30;;;2.60;;
48205;SDS011;33995;48.202;16.260;2022-07-17T00:16:43;3.43;;;2.43;;
48205;SDS011;33995;48.202;16.260;2022-07-17T00:19:13;2.80;;;2.50;;
48205;SDS011;33995;48.202;16.260;2022-07-17T00:21:53;2.73;;;2.53;;
48205;SDS011;33995;48.202;16.260;2022-07-17T00:24:24;3.23;;;2.60;;
48205;SDS011;33995;48.202;16.260;2022-07-17T00:27:06;4.57;;;2.53;;
48205;SDS011;33995;48.202;16.260;2022-07-17T00:29:34;2.83;;;2.47;;
48205;SDS011;33995;48.202;16.260;2022-07-17T00:32:17;3.93;;;2.50;;
48205;SDS011;33995;48.202;16.260;2022-07-17T00:34:55;2.73;;;2.50;;
48205;SDS011;33995;48.202;16.260;2022-07-17T00:37:24;3.10;;;2.40;;
48205;SDS011;33995;48.202;16.260;2022-07-17T00:40:04;3.00;;;2.60;;
48205;SDS011;33995;48.202;16.260;2022-07-17T00:42:47;3.00;;;2.37;;
48205;SDS011;33995;48.202;16.260;2022-07-17T00:45:17;2.60;;;2.30;;
48205;SDS011;33995;48.202;16.260;2022-07-17T00:48:00;2.90;;;2.60;;
48205;SDS011;33995;48.202;16.260;2022-07-17T00:50:41;3.00;;;2.50;;
48205;SDS011;33995;48.202;16.260;2022-07-17T00:53:10;2.97;;;2.43;;
48205;SDS011;33995;48.202;16.260;2022-07-17T00:55:39;4.07;;;2.43;;
48205;SDS011;33995;48.202;16.260;2022-07-17T00:58:11;2.60;;;2.40;;
48205;SDS011;33995;48.202;16.260;2022-07-17T01:00:49;2.53;;;2.33;;
48205;SDS011;33995;48.202;16.260;2022-07-17T01:03:24;2.60;;;2.40;;
48205;SDS011;33995;48.202;16.260;2022-07-17T01:06:00;4.60;;;2.40;;
48205;SDS011;33995;48.202;16.260;2022-07-17T01:08:34;3.30;;;2.50;;
48205;SDS011;33995;48.202;16.260;2022-07-17T01:11:13;3.50;;;2.50;;
48205;SDS011;33995;48.202;16.260;2022-07-17T01:14:03;3.20;;;2.20;;
48205;SDS011;33995;48.202;16.260;2022-07-17T01:16:42;3.70;;;2.50;;
48205;SDS011;33995;48.202;16.260;2022-07-17T01:19:34;2.73;;;2.53;;
48205;SDS011;33995;48.202;16.260;2022-07-17T01:22:09;2.70;;;2.50;;
48205;SDS011;33995;48.202;16.260;2022-07-17T01:24:41;2.40;;;2.20;;
48205;SDS011;33995;48.202;16.260;2022-07-17T01:27:24;2.70;;;2.47;;
48205;SDS011;33995;48.202;16.260;2022-07-17T01:29:58;2.60;;;2.37;;
48205;SDS011;33995;48.202;16.260;2022-07-17T01:32:32;3.70;;;2.13;;
48205;SDS011;33995;48.202;16.260;2022-07-17T01:35:19;2.80;;;2.50;;
48205;SDS011;33995;48.202;16.260;2022-07-17T01:37:52;4.17;;;2.47;;
48205;SDS011;33995;48.202;16.260;2022-07-17T01:40:22;3.17;;;2.33;;
48205;SDS011;33995;48.202;16.260;2022-07-17T01:42:58;3.70;;;2.40;;
48205;SDS011;33995;48.202;16.260;2022-07-17T01:45:42;2.50;;;2.30;;
48205;SDS011;33995;48.202;16.260;2022-07-17T01:48:23;2.20;;;2.07;;
48205;SDS011;33995;48.202;16.260;2022-07-17T01:50:58;2.40;;;2.20;;
48205;SDS011;33995;48.202;16.260;2022-07-17T01:53:36;3.20;;;2.30;;
48205;SDS011;33995;48.202;16.260;2022-07-17T01:56:13;3.30;;;2.30;;
48205;SDS011;33995;48.202;16.260;2022-07-17T01:58:50;2.77;;;2.33;;
48205;SDS011;33995;48.202;16.260;2022-07-17T02:01:32;3.90;;;2.50;;
48205;SDS011;33995;48.202;16.260;2022-07-17T02:04:02;3.23;;;2.37;;
48205;SDS011;33995;48.202;16.260;2022-07-17T02:06:33;3.17;;;2.13;;
48205;SDS011;33995;48.202;16.260;2022-07-17T02:09:06;2.43;;;2.17;;
48205;SDS011;33995;48.202;16.260;2022-07-17T02:11:37;3.03;;;2.27;;
48205;SDS011;33995;48.202;16.260;2022-07-17T02:14:19;2.40;;;2.20;;
48205;SDS011;33995;48.202;16.260;2022-07-17T02:16:50;2.73;;;2.30;;
48205;SDS011;33995;48.202;16.260;2022-07-17T02:19:28;3.27;;;2.53;;
48205;SDS011;33995;48.202;16.260;2022-07-17T02:22:03;2.60;;;2.40;;
48205;SDS011;33995;48.202;16.260;2022-07-17T02:24:35;3.80;;;2.73;;
48205;SDS011;33995;48.202;16.260;2022-07-17T02:27:18;3.83;;;2.40;;
48205;SDS011;33995;48.202;16.260;2022-07-17T02:29:46;3.83;;;2.40;;
48205;SDS011;33995;48.202;16.260;2022-07-17T02:32:19;2.70;;;2.50;;
48205;SDS011;33995;48.202;16.260;2022-07-17T02:34:54;2.73;;;2.27;;
48205;SDS011;33995;48.202;16.260;2022-07-17T02:37:27;2.40;;;2.20;;
48205;SDS011;33995;48.202;16.260;2022-07-17T02:40:00;2.57;;;2.27;;
48205;SDS011;33995;48.202;16.260;2022-07-17T02:42:29;2.30;;;2.10;;
48205;SDS011;33995;48.202;16.260;2022-07-17T02:45:00;2.30;;;2.10;;
48205;SDS011;33995;48.202;16.260;2022-07-17T02:47:30;2.97;;;2.23;;
48205;SDS011;33995;48.202;16.260;2022-07-17T02:50:08;2.37;;;2.10;;
48205;SDS011;33995;48.202;16.260;2022-07-17T02:52:38;2.37;;;2.10;;
48205;SDS011;33995;48.202;16.260;2022-07-17T02:55:14;3.60;;;2.00;;
48205;SDS011;33995;48.202;16.260;2022-07-17T02:57:56;2.30;;;2.10;;
48205;SDS011;33995;48.202;16.260;2022-07-17T03:00:25;3.63;;;2.20;;
48205;SDS011;33995;48.202;16.260;2022-07-17T03:03:10;2.40;;;2.10;;
48205;SDS011;33995;48.202;16.260;2022-07-17T03:05:44;2.30;;;2.10;;
48205;SDS011;33995;48.202;16.260;2022-07-17T03:08:20;2.47;;;2.20;;
48205;SDS011;33995;48.202;16.260;2022-07-17T03:11:01;2.50;;;2.30;;
48205;SDS011;33995;48.202;16.260;2022-07-17T03:13:31;3.07;;;2.13;;
48205;SDS011;33995;48.202;16.260;2022-07-17T03:16:08;4.97;;;2.30;;
48205;SDS011;33995;48.202;16.260;2022-07-17T03:18:44;3.27;;;2.27;;
48205;SDS011;33995;48.202;16.260;2022-07-17T03:21:16;2.43;;;2.23;;
48205;SDS011;33995;48.202;16.260;2022-07-17T03:23:46;2.60;;;1.90;;
48205;SDS011;33995;48.202;16.260;2022-07-17T03:26:18;3.57;;;2.13;;
48205;SDS011;33995;48.202;16.260;2022-07-17T03:28:47;2.10;;;2.00;;
48205;SDS011;33995;48.202;16.260;2022-07-17T03:31:31;3.97;;;2.17;;
48205;SDS011;33995;48.202;16.260;2022-07-17T03:34:01;2.47;;;2.20;;
48205;SDS011;33995;48.202;16.260;2022-07-17T03:36:32;2.17;;;1.97;;
48205;SDS011;33995;48.202;16.260;2022-07-17T03:39:05;3.23;;;2.30;;
48205;SDS011;33995;48.202;16.260;2022-07-17T03:41:47;3.00;;;2.03;;
48205;SDS011;33995;48.202;16.260;2022-07-17T03:44:17;2.30;;;2.10;;
48205;SDS011;33995;48.202;16.260;2022-07-17T03:46:48;2.47;;;2.07;;
48205;SDS011;33995;48.202;16.260;2022-07-17T03:49:19;2.60;;;2.30;;
48205;SDS011;33995;48.202;16.260;2022-07-17T03:51:48;2.50;;;2.30;;
48205;SDS011;33995;48.202;16.260;2022-07-17T03:54:23;2.70;;;2.30;;
48205;SDS011;33995;48.202;16.260;2022-07-17T03:56:54;2.43;;;2.13;;
48205;SDS011;33995;48.202;16.260;2022-07-17T03:59:28;2.40;;;2.20;;
48205;SDS011;33995;48.202;16.260;2022-07-17T04:02:00;3.17;;;2.10;;
48205;SDS011;33995;48.202;16.260;2022-07-17T04:04:31;2.53;;;2.30;;
48205;SDS011;33995;48.202;16.260;2022-07-17T04:07:03;2.57;;;2.37;;
48205;SDS011;33995;48.202;16.260;2022-07-17T04:09:56;2.40;;;2.20;;
48205;SDS011;33995;48.202;16.260;2022-07-17T04:12:26;3.17;;;2.30;;
48205;SDS011;33995;48.202;16.260;2022-07-17T04:14:56;4.33;;;2.50;;
48205;SDS011;33995;48.202;16.260;2022-07-17T04:17:30;2.17;;;1.97;;
48205;SDS011;33995;48.202;16.260;2022-07-17T04:20:03;3.23;;;2.20;;
48205;SDS011;33995;48.202;16.260;2022-07-17T04:22:35;3.80;;;2.23;;
48205;SDS011;33995;48.202;16.260;2022-07-17T04:25:02;2.97;;;2.37;;
48205;SDS011;33995;48.202;16.260;2022-07-17T04:27:32;5.20;;;2.40;;
48205;SDS011;33995;48.202;16.260;2022-07-17T04:30:02;2.67;;;2.20;;
48205;SDS011;33995;48.202;16.260;2022-07-17T04:32:39;2.40;;;2.10;;
48205;SDS011;33995;48.202;16.260;2022-07-17T04:35:08;3.33;;;2.30;;
48205;SDS011;33995;48.202;16.260;2022-07-17T04:37:40;2.37;;;2.17;;
48205;SDS011;33995;48.202;16.260;2022-07-17T04:40:12;2.40;;;2.20;;
48205;SDS011;33995;48.202;16.260;2022-07-17T04:42:52;3.80;;;2.63;;
48205;SDS011;33995;48.202;16.260;2022-07-17T04:45:23;3.57;;;2.23;;
48205;SDS011;33995;48.202;16.260;2022-07-17T04:47:53;3.23;;;2.40;;
48205;SDS011;33995;48.202;16.260;2022-07-17T04:50:28;3.70;;;2.20;;
48205;SDS011;33995;48.202;16.260;2022-07-17T04:53:05;2.53;;;2.33;;
48205;SDS011;33995;48.202;16.260;2022-07-17T04:55:39;2.37;;;2.17;;
48205;SDS011;33995;48.202;16.260;2022-07-17T04:58:08;4.17;;;2.10;;
48205;SDS011;33995;48.202;16.260;2022-07-17T05:00:38;2.80;;;2.10;;
48205;SDS011;33995;48.202;16.260;2022-07-17T05:03:09;4.33;;;2.50;;
48205;SDS011;33995;48.202;16.260;2022-07-17T05:05:55;2.67;;;2.20;;
48205;SDS011;33995;48.202;16.260;2022-07-17T05:08:26;2.30;;;2.10;;
48205;SDS011;33995;48.202;16.260;2022-07-17T05:10:55;2.90;;;2.50;;
48205;SDS011;33995;48.202;16.260;2022-07-17T05:13:33;3.07;;;2.30;;
48205;SDS011;33995;48.202;16.260;2022-07-17T05:16:14;3.07;;;2.33;;
48205;SDS011;33995;48.202;16.260;2022-07-17T05:18:48;2.60;;;2.40;;
48205;SDS011;33995;48.202;16.260;2022-07-17T05:21:20;3.13;;;2.30;;
48205;SDS011;33995;48.202;16.260;2022-07-17T05:23:49;3.17;;;2.30;;
48205;SDS011;33995;48.202;16.260;2022-07-17T05:26:21;2.60;;;2.20;;
48205;SDS011;33995;48.202;16.260;2022-07-17T05:28:53;2.70;;;2.50;;
48205;SDS011;33995;48.202;16.260;2022-07-17T05:31:34;2.50;;;2.30;;
48205;SDS011;33995;48.202;16.260;2022-07-17T05:34:01;4.40;;;2.40;;
48205;SDS011;33995;48.202;16.260;2022-07-17T05:36:34;3.57;;;2.40;;
48205;SDS011;33995;48.202;16.260;2022-07-17T05:39:05;2.50;;;2.20;;
48205;SDS011;33995;48.202;16.260;2022-07-17T05:41:36;2.53;;;2.17;;
48205;SDS011;33995;48.202;16.260;2022-07-17T05:44:06;3.70;;;2.40;;
48205;SDS011;33995;48.202;16.260;2022-07-17T05:46:37;2.50;;;2.30;;
48205;SDS011;33995;48.202;16.260;2022-07-17T05:49:12;3.13;;;2.10;;
48205;SDS011;33995;48.202;16.260;2022-07-17T05:51:42;2.50;;;2.10;;
48205;SDS011;33995;48.202;16.260;2022-07-17T05:54:11;2.90;;;2.23;;
48205;SDS011;33995;48.202;16.260;2022-07-17T05:56:41;2.80;;;2.13;;
48205;SDS011;33995;48.202;16.260;2022-07-17T05:59:11;3.30;;;2.20;;
48205;SDS011;33995;48.202;16.260;2022-07-17T06:01:58;3.57;;;2.10;;
48205;SDS011;33995;48.202;16.260;2022-07-17T06:04:40;3.30;;;2.30;;
48205;SDS011;33995;48.202;16.260;2022-07-17T06:07:14;2.70;;;2.13;;
48205;SDS011;33995;48.202;16.260;2022-07-17T06:09:56;2.37;;;1.90;;
48205;SDS011;33995;48.202;16.260;2022-07-17T06:12:43;3.63;;;2.30;;
48205;SDS011;33995;48.202;16.260;2022-07-17T06:15:18;3.70;;;2.20;;
48205;SDS011;33995;48.202;16.260;2022-07-17T06:17:55;2.47;;;2.20;;
48205;SDS011;33995;48.202;16.260;2022-07-17T06:20:37;2.47;;;2.00;;
48205;SDS011;33995;48.202;16.260;2022-07-17T06:23:09;4.70;;;2.10;;
48205;SDS011;33995;48.202;16.260;2022-07-17T06:25:51;3.00;;;1.97;;
48205;SDS011;33995;48.202;16.260;2022-07-17T06:28:21;3.50;;;1.90;;
48205;SDS011;33995;48.202;16.260;2022-07-17T06:30:52;4.27;;;2.30;;
48205;SDS011;33995;48.202;16.260;2022-07-17T06:33:27;2.40;;;1.90;;
48205;SDS011;33995;48.202;16.260;2022-07-17T06:35:59;2.33;;;1.90;;
48205;SDS011;33995;48.202;16.260;2022-07-17T06:38:43;2.10;;;1.90;;
48205;SDS011;33995;48.202;16.260;2022-07-17T06:41:14;2.27;;;1.77;;
48205;SDS011;33995;48.202;16.260;2022-07-17T06:43:45;2.43;;;1.60;;
48205;SDS011;33995;48.202;16.260;2022-07-17T06:46:28;2.57;;;1.93;;
48205;SDS011;33995;48.202;16.260;2022-07-17T06:49:01;2.53;;;1.63;;
48205;SDS011;33995;48.202;16.260;2022-07-17T06:51:44;2.00;;;1.80;;
48205;SDS011;33995;48.202;16.260;2022-07-17T06:54:19;2.17;;;1.57;;
48205;SDS011;33995;48.202;16.260;2022-07-17T06:56:54;3.03;;;1.63;;
48205;SDS011;33995;48.202;16.260;2022-07-17T06:59:25;1.70;;;1.50;;
48205;SDS011;33995;48.202;16.260;2022-07-17T07:01:58;3.23;;;1.47;;
48205;SDS011;33995;48.202;16.260;2022-07-17T07:04:27;2.10;;;1.50;;
48205;SDS011;33995;48.202;16.260;2022-07-17T07:07:00;3.63;;;1.80;;
48205;SDS011;33995;48.202;16.260;2022-07-17T07:09:28;2.93;;;1.57;;
48205;SDS011;33995;48.202;16.260;2022-07-17T07:12:02;2.73;;;1.40;;
48205;SDS011;33995;48.202;16.260;2022-07-17T07:14:39;2.67;;;1.57;;
48205;SDS011;33995;48.202;16.260;2022-07-17T07:17:22;2.20;;;1.77;;
48205;SDS011;33995;48.202;16.260;2022-07-17T07:19:55;4.17;;;1.77;;
48205;SDS011;33995;48.202;16.260;2022-07-17T07:22:39;2.50;;;1.50;;
48205;SDS011;33995;48.202;16.260;2022-07-17T07:25:22;2.23;;;1.70;;
48205;SDS011;33995;48.202;16.260;2022-07-17T07:27:56;3.17;;;1.37;;
48205;SDS011;33995;48.202;16.260;2022-07-17T07:30:31;3.97;;;1.70;;
48205;SDS011;33995;48.202;16.260;2022-07-17T07:33:03;4.13;;;1.73;;
48205;SDS011;33995;48.202;16.260;2022-07-17T07:35:32;3.70;;;1.40;;
48205;SDS011;33995;48.202;16.260;2022-07-17T07:38:05;3.70;;;1.77;;
48205;SDS011;33995;48.202;16.260;2022-07-17T07:40:37;1.80;;;1.40;;
48205;SDS011;33995;48.202;16.260;2022-07-17T07:43:08;2.77;;;1.43;;
48205;SDS011;33995;48.202;16.260;2022-07-17T07:45:44;3.13;;;1.50;;
48205;SDS011;33995;48.202;16.260;2022-07-17T07:48:25;2.90;;;1.60;;
48205;SDS011;33995;48.202;16.260;2022-07-17T07:50:55;1.70;;;1.40;;
48205;SDS011;33995;48.202;16.260;2022-07-17T07:53:37;2.10;;;1.43;;
48205;SDS011;33995;48.202;16.260;2022-07-17T07:56:06;2.23;;;1.40;;
48205;SDS011;33995;48.202;16.260;2022-07-17T07:58:34;2.17;;;1.50;;
48205;SDS011;33995;48.202;16.260;2022-07-17T08:01:05;3.03;;;1.53;;
48205;SDS011;33995;48.202;16.260;2022-07-17T08:03:44;3.53;;;1.37;;
48205;SDS011;33995;48.202;16.260;2022-07-17T08:06:11;2.47;;;1.47;;
48205;SDS011;33995;48.202;16.260;2022-07-17T08:08:47;2.37;;;1.33;;
48205;SDS011;33995;48.202;16.260;2022-07-17T08:11:25;2.33;;;1.30;;
48205;SDS011;33995;48.202;16.260;2022-07-17T08:14:01;1.63;;;1.40;;
48205;SDS011;33995;48.202;16.260;2022-07-17T08:16:42;3.53;;;1.80;;
48205;SDS011;33995;48.202;16.260;2022-07-17T08:19:20;2.23;;;1.40;;
48205;SDS011;33995;48.202;16.260;2022-07-17T08:21:52;2.27;;;1.10;;
48205;SDS011;33995;48.202;16.260;2022-07-17T08:24:23;3.03;;;1.40;;
48205;SDS011;33995;48.202;16.260;2022-07-17T08:26:51;1.63;;;1.20;;
48205;SDS011;33995;48.202;16.260;2022-07-17T08:29:24;2.97;;;1.60;;
48205;SDS011;33995;48.202;16.260;2022-07-17T08:32:07;1.93;;;1.30;;
48205;SDS011;33995;48.202;16.260;2022-07-17T08:34:37;1.80;;;1.20;;
48205;SDS011;33995;48.202;16.260;2022-07-17T08:37:08;3.50;;;1.40;;
48205;SDS011;33995;48.202;16.260;2022-07-17T08:39:38;3.73;;;1.40;;
48205;SDS011;33995;48.202;16.260;2022-07-17T08:42:16;3.07;;;1.50;;
48205;SDS011;33995;48.202;16.260;2022-07-17T08:44:49;2.43;;;1.60;;
48205;SDS011;33995;48.202;16.260;2022-07-17T08:47:18;1.30;;;1.20;;
48205;SDS011;33995;48.202;16.260;2022-07-17T08:49:55;3.67;;;1.50;;
48205;SDS011;33995;48.202;16.260;2022-07-17T08:52:25;3.17;;;1.73;;
48205;SDS011;33995;48.202;16.260;2022-07-17T08:54:58;1.70;;;1.30;;
48205;SDS011;33995;48.202;16.260;2022-07-17T08:57:28;4.73;;;1.40;;
48205;SDS011;33995;48.202;16.260;2022-07-17T09:00:05;2.70;;;1.40;;
48205;SDS011;33995;48.202;16.260;2022-07-17T09:02:51;1.97;;;1.50;;
48205;SDS011;33995;48.202;16.260;2022-07-17T09:05:49;3.30;;;1.40;;
48205;SDS011;33995;48.202;16.260;2022-07-17T09:08:33;3.03;;;1.40;;
48205;SDS011;33995;48.202;16.260;2022-07-17T09:11:05;2.93;;;1.50;;
48205;SDS011;33995;48.202;16.260;2022-07-17T09:13:45;1.87;;;1.30;;
48205;SDS011;33995;48.202;16.260;2022-07-17T09:16:29;2.80;;;1.47;;
48205;SDS011;33995;48.202;16.260;2022-07-17T09:19:03;1.67;;;1.30;;
48205;SDS011;33995;48.202;16.260;2022-07-17T09:21:35;2.33;;;1.40;;
48205;SDS011;33995;48.202;16.260;2022-07-17T09:24:13;2.43;;;1.40;;
48205;SDS011;33995;48.202;16.260;2022-07-17T09:26:44;2.00;;;1.50;;
48205;SDS011;33995;48.202;16.260;2022-07-17T09:29:25;2.50;;;1.40;;
48205;SDS011;33995;48.202;16.260;2022-07-17T09:31:57;1.93;;;1.30;;
48205;SDS011;33995;48.202;16.260;2022-07-17T09:34:28;2.53;;;1.40;;
48205;SDS011;33995;48.202;16.260;2022-07-17T09:37:11;2.07;;;1.47;;
48205;SDS011;33995;48.202;16.260;2022-07-17T09:39:43;1.70;;;1.40;;
48205;SDS011;33995;48.202;16.260;2022-07-17T09:45:01;2.03;;;1.30;;
48205;SDS011;33995;48.202;16.260;2022-07-17T09:47:38;1.80;;;1.40;;
48205;SDS011;33995;48.202;16.260;2022-07-17T09:50:08;2.93;;;1.53;;
48205;SDS011;33995;48.202;16.260;2022-07-17T09:52:39;5.63;;;1.80;;
48205;SDS011;33995;48.202;16.260;2022-07-17T09:55:18;1.80;;;1.47;;
48205;SDS011;33995;48.202;16.260;2022-07-17T09:58:17;1.50;;;1.27;;
48205;SDS011;33995;48.202;16.260;2022-07-17T10:00:52;1.40;;;1.30;;
48205;SDS011;33995;48.202;16.260;2022-07-17T10:03:24;3.47;;;1.50;;
48205;SDS011;33995;48.202;16.260;2022-07-17T10:06:01;3.23;;;1.50;;
48205;SDS011;33995;48.202;16.260;2022-07-17T10:08:37;1.77;;;1.53;;
48205;SDS011;33995;48.202;16.260;2022-07-17T10:11:09;2.03;;;1.63;;
48205;SDS011;33995;48.202;16.260;2022-07-17T10:13:45;2.70;;;1.73;;
48205;SDS011;33995;48.202;16.260;2022-07-17T10:16:30;3.10;;;1.77;;
48205;SDS011;33995;48.202;16.260;2022-07-17T10:18:59;1.97;;;1.40;;
48205;SDS011;33995;48.202;16.260;2022-07-17T10:21:33;3.50;;;1.50;;
48205;SDS011;33995;48.202;16.260;2022-07-17T10:24:07;3.13;;;1.63;;
48205;SDS011;33995;48.202;16.260;2022-07-17T10:26:41;1.57;;;1.40;;
48205;SDS011;33995;48.202;16.260;2022-07-17T10:32:17;2.63;;;1.60;;
48205;SDS011;33995;48.202;16.260;2022-07-17T10:35:08;1.80;;;1.53;;
48205;SDS011;33995;48.202;16.260;2022-07-17T10:37:50;2.73;;;1.40;;
48205;SDS011;33995;48.202;16.260;2022-07-17T10:40:26;2.27;;;1.50;;
48205;SDS011;33995;48.202;16.260;2022-07-17T10:42:59;3.00;;;1.60;;
48205;SDS011;33995;48.202;16.260;2022-07-17T10:45:36;2.63;;;1.70;;
48205;SDS011;33995;48.202;16.260;2022-07-17T10:48:14;2.47;;;1.50;;
48205;SDS011;33995;48.202;16.260;2022-07-17T10:50:56;1.93;;;1.70;;
48205;SDS011;33995;48.202;16.260;2022-07-17T10:53:41;2.20;;;1.53;;
48205;SDS011;33995;48.202;16.260;2022-07-17T10:56:11;2.20;;;1.77;;
48205;SDS011;33995;48.202;16.260;2022-07-17T10:58:46;2.93;;;1.57;;
48205;SDS011;33995;48.202;16.260;2022-07-17T11:01:21;2.40;;;1.60;;
48205;SDS011;33995;48.202;16.260;2022-07-17T11:04:01;2.33;;;1.67;;
48205;SDS011;33995;48.202;16.260;2022-07-17T11:06:39;2.33;;;1.40;;
48205;SDS011;33995;48.202;16.260;2022-07-17T11:09:11;2.67;;;1.57;;
48205;SDS011;33995;48.202;16.260;2022-07-17T11:11:47;2.43;;;1.70;;
48205;SDS011;33995;48.202;16.260;2022-07-17T11:14:18;3.03;;;1.50;;
48205;SDS011;33995;48.202;16.260;2022-07-17T11:19:28;1.63;;;1.40;;
48205;SDS011;33995;48.202;16.260;2022-07-17T11:22:11;1.87;;;1.70;;
48205;SDS011;33995;48.202;16.260;2022-07-17T11:24:43;3.17;;;1.60;;
48205;SDS011;33995;48.202;16.260;2022-07-17T11:27:23;3.80;;;1.70;;
48205;SDS011;33995;48.202;16.260;2022-07-17T11:29:52;1.63;;;1.40;;
48205;SDS011;33995;48.202;16.260;2022-07-17T11:32:41;1.90;;;1.50;;
48205;SDS011;33995;48.202;16.260;2022-07-17T11:35:22;2.33;;;1.40;;
48205;SDS011;33995;48.202;16.260;2022-07-17T11:38:12;2.10;;;1.60;;
48205;SDS011;33995;48.202;16.260;2022-07-17T11:40:48;2.33;;;1.43;;
48205;SDS011;33995;48.202;16.260;2022-07-17T11:43:39;2.10;;;1.50;;
48205;SDS011;33995;48.202;16.260;2022-07-17T11:46:23;2.67;;;1.70;;
48205;SDS011;33995;48.202;16.260;2022-07-17T11:49:07;2.27;;;1.50;;
48205;SDS011;33995;48.202;16.260;2022-07-17T11:51:42;2.23;;;1.50;;
48205;SDS011;33995;48.202;16.260;2022-07-17T11:54:14;1.63;;;1.50;;
48205;SDS011;33995;48.202;16.260;2022-07-17T11:56:55;2.17;;;1.40;;
48205;SDS011;33995;48.202;16.260;2022-07-17T11:59:35;2.00;;;1.23;;
48205;SDS011;33995;48.202;16.260;2022-07-17T12:02:15;1.27;;;1.17;;
48205;SDS011;33995;48.202;16.260;2022-07-17T12:04:56;1.77;;;1.40;;
48205;SDS011;33995;48.202;16.260;2022-07-17T12:07:44;2.67;;;1.40;;
48205;SDS011;33995;48.202;16.260;2022-07-17T12:10:14;2.50;;;1.30;;
48205;SDS011;33995;48.202;16.260;2022-07-17T12:13:06;1.43;;;1.27;;
48205;SDS011;33995;48.202;16.260;2022-07-17T12:15:39;2.60;;;1.50;;
48205;SDS011;33995;48.202;16.260;2022-07-17T12:18:26;2.80;;;1.47;;
48205;SDS011;33995;48.202;16.260;2022-07-17T12:21:03;3.17;;;1.40;;
48205;SDS011;33995;48.202;16.260;2022-07-17T12:23:39;3.30;;;1.57;;
48205;SDS011;33995;48.202;16.260;2022-07-17T12:26:14;2.30;;;1.50;;
48205;SDS011;33995;48.202;16.260;2022-07-17T12:28:54;1.50;;;1.40;;
48205;SDS011;33995;48.202;16.260;2022-07-17T12:31:27;1.93;;;1.70;;
48205;SDS011;33995;48.202;16.260;2022-07-17T12:34:04;1.67;;;1.50;;
48205;SDS011;33995;48.202;16.260;2022-07-17T12:36:43;1.93;;;1.70;;
48205;SDS011;33995;48.202;16.260;2022-07-17T12:39:13;72.60;;;5.63;;
48205;SDS011;33995;48.202;16.260;2022-07-17T12:41:43;3.70;;;1.33;;
48205;SDS011;33995;48.202;16.260;2022-07-17T12:44:14;2.87;;;1.30;;
48205;SDS011;33995;48.202;16.260;2022-07-17T12:46:51;1.57;;;1.47;;
48205;SDS011;33995;48.202;16.260;2022-07-17T12:52:19;1.40;;;1.30;;
48205;SDS011;33995;48.202;16.260;2022-07-17T12:54:47;2.53;;;1.40;;
48205;SDS011;33995;48.202;16.260;2022-07-17T12:57:20;2.27;;;1.40;;
48205;SDS011;33995;48.202;16.260;2022-07-17T12:59:50;3.33;;;1.43;;
48205;SDS011;33995;48.202;16.260;2022-07-17T13:02:22;3.23;;;1.40;;
48205;SDS011;33995;48.202;16.260;2022-07-17T13:05:14;3.00;;;1.40;;
48205;SDS011;33995;48.202;16.260;2022-07-17T13:07:43;2.20;;;1.20;;
48205;SDS011;33995;48.202;16.260;2022-07-17T13:10:16;1.80;;;1.30;;
48205;SDS011;33995;48.202;16.260;2022-07-17T13:12:45;2.10;;;1.60;;
48205;SDS011;33995;48.202;16.260;2022-07-17T13:15:21;3.00;;;1.60;;
48205;SDS011;33995;48.202;16.260;2022-07-17T13:18:02;1.80;;;1.43;;
48205;SDS011;33995;48.202;16.260;2022-07-17T13:20:30;3.73;;;1.77;;
48205;SDS011;33995;48.202;16.260;2022-07-17T13:23:02;1.73;;;1.37;;
48205;SDS011;33995;48.202;16.260;2022-07-17T13:25:31;2.90;;;1.67;;
48205;SDS011;33995;48.202;16.260;2022-07-17T13:28:05;2.33;;;1.20;;
48205;SDS011;33995;48.202;16.260;2022-07-17T13:30:40;3.00;;;1.40;;
48205;SDS011;33995;48.202;16.260;2022-07-17T13:33:11;2.77;;;1.57;;
48205;SDS011;33995;48.202;16.260;2022-07-17T13:35:40;2.50;;;1.40;;
48205;SDS011;33995;48.202;16.260;2022-07-17T13:38:11;2.10;;;1.43;;
48205;SDS011;33995;48.202;16.260;2022-07-17T13:40:43;3.13;;;1.50;;
48205;SDS011;33995;48.202;16.260;2022-07-17T13:43:12;4.17;;;1.60;;
48205;SDS011;33995;48.202;16.260;2022-07-17T13:45:53;3.43;;;1.53;;
48205;SDS011;33995;48.202;16.260;2022-07-17T13:48:23;3.67;;;1.60;;
48205;SDS011;33995;48.202;16.260;2022-07-17T13:50:55;1.67;;;1.47;;
48205;SDS011;33995;48.202;16.260;2022-07-17T13:53:29;2.50;;;1.50;;
48205;SDS011;33995;48.202;16.260;2022-07-17T13:56:02;2.40;;;1.70;;
48205;SDS011;33995;48.202;16.260;2022-07-17T13:58:31;2.57;;;1.60;;
48205;SDS011;33995;48.202;16.260;2022-07-17T14:01:09;2.97;;;1.57;;
48205;SDS011;33995;48.202;16.260;2022-07-17T14:03:51;3.20;;;1.70;;
48205;SDS011;33995;48.202;16.260;2022-07-17T14:06:31;2.53;;;1.43;;
48205;SDS011;33995;48.202;16.260;2022-07-17T14:09:02;2.93;;;1.50;;
48205;SDS011;33995;48.202;16.260;2022-07-17T14:11:43;3.10;;;1.70;;
48205;SDS011;33995;48.202;16.260;2022-07-17T14:14:19;1.87;;;1.60;;
48205;SDS011;33995;48.202;16.260;2022-07-17T14:17:04;3.27;;;1.40;;
48205;SDS011;33995;48.202;16.260;2022-07-17T14:19:34;3.13;;;1.47;;
48205;SDS011;33995;48.202;16.260;2022-07-17T14:22:12;1.90;;;1.33;;
48205;SDS011;33995;48.202;16.260;2022-07-17T14:24:55;2.30;;;1.60;;
48205;SDS011;33995;48.202;16.260;2022-07-17T14:27:39;2.20;;;1.60;;
48205;SDS011;33995;48.202;16.260;2022-07-17T14:30:13;2.53;;;1.50;;
48205;SDS011;33995;48.202;16.260;2022-07-17T14:32:44;2.17;;;1.40;;
48205;SDS011;33995;48.202;16.260;2022-07-17T14:35:18;3.50;;;1.60;;
48205;SDS011;33995;48.202;16.260;2022-07-17T14:37:49;1.50;;;1.30;;
48205;SDS011;33995;48.202;16.260;2022-07-17T14:40:19;3.17;;;1.60;;
48205;SDS011;33995;48.202;16.260;2022-07-17T14:42:54;2.50;;;1.60;;
48205;SDS011;33995;48.202;16.260;2022-07-17T14:45:26;2.23;;;1.60;;
48205;SDS011;33995;48.202;16.260;2022-07-17T14:47:59;3.07;;;1.70;;
48205;SDS011;33995;48.202;16.260;2022-07-17T14:50:27;1.80;;;1.47;;
48205;SDS011;33995;48.202;16.260;2022-07-17T14:53:05;3.23;;;1.73;;
48205;SDS011;33995;48.202;16.260;2022-07-17T14:55:34;2.63;;;1.73;;
48205;SDS011;33995;48.202;16.260;2022-07-17T14:58:17;1.90;;;1.47;;
48205;SDS011;33995;48.202;16.260;2022-07-17T15:00:45;2.73;;;1.50;;
48205;SDS011;33995;48.202;16.260;2022-07-17T15:03:20;2.07;;;1.60;;
48205;SDS011;33995;48.202;16.260;2022-07-17T15:06:01;2.00;;;1.70;;
48205;SDS011;33995;48.202;16.260;2022-07-17T15:08:32;1.63;;;1.50;;
48205;SDS011;33995;48.202;16.260;2022-07-17T15:11:07;2.27;;;1.50;;
48205;SDS011;33995;48.202;16.260;2022-07-17T15:13:38;1.87;;;1.67;;
48205;SDS011;33995;48.202;16.260;2022-07-17T15:16:07;2.47;;;1.73;;
48205;SDS011;33995;48.202;16.260;2022-07-17T15:18:38;2.53;;;1.70;;
48205;SDS011;33995;48.202;16.260;2022-07-17T15:21:23;1.80;;;1.60;;
48205;SDS011;33995;48.202;16.260;2022-07-17T15:24:15;1.67;;;1.50;;
48205;SDS011;33995;48.202;16.260;2022-07-17T15:26:45;3.10;;;2.00;;
48205;SDS011;33995;48.202;16.260;2022-07-17T15:29:28;2.40;;;1.70;;
48205;SDS011;33995;48.202;16.260;2022-07-17T15:31:59;3.27;;;1.50;;